Latest Coastal Weather Observations for Kowanyama

IDQ60701

Issued at 12:21 pm EST Friday 27 May 2016 (issued every 10 minutes, with the page automatically refreshed every 10 minutes)

About coastal observations | Map of coastal stations | Coastal observations for QLD | Marine services | Other Formats
Station Details ID: 029038 Name: KOWANYAMA AIRPORT Lat: -15.48 Lon: 141.75 Height: 9.6 m
Data from the previous 72 hours. | See also: Recent months at Kowanyama
Date/Time
EST
Temp

°C
Wind Pressure Rain
since 9am
mm
Weather Cloud Vis
km
Sea
Height
m
Swell
Dir
 
Speed
knots
Gust
knots
hPa Trend Height
m
Period
s
Dir
27/12:00pm 30.4 ENE 4 7 1014.0 - 0.0 - Mostly cloudy - - - - -
27/11:30am 30.4 N 4 6 1014.3 - 0.0 - Partly cloudy - - - - -
27/11:00am 30.5 N 5 7 1014.7 - 0.0 - - - - - - -
27/10:30am 30.4 NE 5 8 1015.0 - 0.0 - Partly cloudy - - - - -
27/10:00am 29.0 NE 6 9 1015.2 - 0.0 - - - - - - -
27/09:30am 28.6 NNE 5 7 1015.2 - 0.0 - - - - - - -
27/09:00am 27.5 NE 6 7 1015.2 - 0.0 - - - - - - -
27/08:30am 26.4 NE 5 7 1015.0 - 0.0 - - - - - - -
27/08:00am 25.5 NE 3 4 1014.7 - 0.0 - - - - - - -
27/07:30am 24.2 CALM 0 2 1014.3 - 0.0 - - - - - - -
27/07:00am 23.4 NE 3 4 1014.0 - 0.0 - - - - - - -
27/06:30am 23.4 ENE 3 4 1013.7 - 0.0 - - - - - - -
27/06:00am 23.5 ENE 4 5 1013.5 - 0.0 - Mostly clear - - - - -
27/05:30am 23.5 ENE 3 4 1013.3 - 0.0 - Partly cloudy - - - - -
27/05:00am 23.7 ENE 3 5 1013.2 - 0.0 - - - - - - -
27/04:30am 23.6 ENE 1 4 1013.2 - 0.0 - Partly cloudy - - - - -
27/04:00am 23.6 CALM 0 0 1013.2 - 0.0 - Partly cloudy - - - - -
27/03:30am 23.6 CALM 0 0 1013.1 - 0.0 - - - - - - -
27/03:00am 23.8 ENE 4 5 1012.9 - 0.0 - - - - - - -
27/02:30am 23.9 E 1 3 1013.0 - 0.0 - - - - - - -
27/02:00am 23.9 NE 5 5 1013.2 - 0.0 - - - - - - -
27/01:30am 23.9 NE 3 4 1013.4 - 0.0 - - - - - - -
27/01:00am 24.0 CALM 0 3 1013.3 - 0.0 - - - - - - -
27/12:30am 24.2 CALM 0 0 1013.3 - 0.0 - - - - - - -
27/12:00am 24.6 CALM 0 0 1013.2 - 0.0 - - - - - - -
 
Date/Time
EST
Temp

°C
Wind Pressure Rain
since 9am
mm
Weather Cloud Vis
km
Sea
Height
m
Swell
Dir
 
Speed
knots
Gust
knots
hPa Trend Height
m
Period
s
Dir
26/11:30pm 24.7 SSW 2 3 1013.1 - 0.0 - - - - - - -
26/11:00pm 24.8 CALM 0 2 1013.2 - 0.0 - - - - - - -
26/10:30pm 24.9 SW 1 3 1013.3 - 0.0 - - - - - - -
26/10:00pm 25.1 S 2 4 1013.3 - 0.0 - - - - - - -
26/09:30pm 25.3 SW 1 3 1013.1 - 0.0 - - - - - - -
26/09:00pm 25.5 SSW 2 4 1013.1 - 0.0 - - - - - - -
26/08:30pm 25.9 SW 4 5 1013.2 - 0.0 - - - - - - -
26/08:00pm 26.3 SW 5 8 1012.8 - 0.0 - - - - - - -
26/07:30pm 26.6 SW 6 8 1012.6 - 0.0 - - - - - - -
26/07:00pm 27.1 WSW 7 11 1012.3 - 0.0 - Cloudy - - - - -
26/06:30pm 27.9 SW 8 10 1011.9 - 0.0 - Cloudy - - - - -
26/06:00pm 29.1 WSW 10 13 1011.7 - 0.0 - Cloudy - - - - -
26/05:30pm 30.7 W 8 10 1011.5 - 0.0 - Partly cloudy - - - - -
26/05:00pm 31.3 N 2 6 1011.3 - 0.0 - Partly cloudy - - - - -
26/04:30pm 31.1 ENE 1 4 1011.3 - 0.0 - Partly cloudy - - - - -
26/04:00pm 31.6 E 5 7 1011.2 - 0.0 - - - - - - -
26/03:30pm 32.5 SE 6 8 1011.4 - 0.0 - Partly cloudy - - - - -
26/03:00pm 32.4 SE 8 13 1011.6 - 0.0 - Partly cloudy - - - - -
26/02:30pm 31.6 ENE 5 7 1011.8 - 0.0 - Partly cloudy - - - - -
26/02:00pm 31.8 ESE 6 9 1012.1 - 0.0 - - - - - - -
26/01:30pm 32.6 E 5 7 1012.4 - 0.0 - Partly cloudy - - - - -
26/01:00pm 32.1 ENE 5 9 1012.9 - 0.0 - - - - - - -
26/12:30pm 32.0 ENE 5 10 1013.6 - 0.0 - - - - - - -
26/12:00pm 31.1 NNE 6 9 1014.0 - 0.0 - - - - - - -
26/11:30am 29.7 ENE 6 10 1014.4 - 0.0 - - - - - - -
26/11:00am 29.4 NE 5 9 1014.9 - 0.0 - - - - - - -
26/10:30am 28.7 ENE 7 11 1015.1 - 0.0 - - - - - - -
26/10:00am 27.4 E 6 9 1015.4 - 0.0 - - - - - - -
26/09:30am 27.0 ENE 5 8 1015.4 - 0.0 - Partly cloudy - - - - -
26/09:00am 25.9 ENE 6 9 1015.5 - 1.4 - Mostly clear - - - - -
26/08:30am 25.2 ENE 6 8 1015.1 - 1.4 - - - - - - -
26/08:00am 24.5 ENE 4 7 1014.7 - 1.4 - - - - - - -
26/07:30am 23.7 E 4 5 1014.3 - 1.4 - Partly cloudy - - - - -
26/07:00am 23.1 ENE 3 4 1013.9 - 1.4 - - - - - - -
26/06:30am 23.3 ENE 4 6 1013.4 - 1.4 - - - - - - -
26/06:00am 23.4 E 4 5 1013.1 - 1.4 - - - - - - -
26/05:30am 23.3 CALM 0 4 1013.1 - 1.4 - - - - - - -
26/05:00am 23.5 ENE 2 3 1012.8 - 1.4 - - - - - - -
26/04:30am 23.6 CALM 0 2 1012.7 - 1.4 - - - - - - -
26/04:00am 24.1 NE 2 5 1012.6 - 1.4 - - - - - - -
26/03:30am 24.3 ENE 4 5 1012.7 - 1.4 - - - - - - -
26/03:00am 24.4 ENE 4 6 1012.8 - 1.4 - - - - - - -
26/02:30am 24.5 ENE 2 3 1013.1 - 1.4 - - - - - - -
26/02:00am 24.7 ENE 4 5 1013.3 - 1.4 - Partly cloudy - - - - -
26/01:30am 24.7 ESE 4 5 1013.4 - 1.4 - Partly cloudy - - - - -
26/01:00am 24.8 E 3 4 1013.4 - 1.4 - Partly cloudy - - - - -
26/12:30am 24.8 E 3 5 1013.4 - 1.4 - Partly cloudy - - - - -
26/12:00am 24.9 SE 3 5 1013.4 - 1.4 Rain Cloudy - - - - -
 
Date/Time
EST
Temp

°C
Wind Pressure Rain
since 9am
mm
Weather Cloud Vis
km
Sea
Height
m
Swell
Dir
 
Speed
knots
Gust
knots
hPa Trend Height
m
Period
s
Dir
25/11:30pm 24.9 S 3 4 1013.4 - 1.2 - Cloudy - - - - -
25/11:00pm 24.9 NW 4 7 1013.6 - 1.2 - Partly cloudy - - - - -
25/10:30pm 24.7 E 2 5 1013.6 - 0.6 - Partly cloudy - - - - -
25/10:00pm 24.9 ESE 4 6 1013.4 - 0.6 - Partly cloudy - - - - -
25/09:30pm 25.0 SE 3 4 1013.4 - 0.6 - Partly cloudy - - - - -
25/09:00pm 25.2 SSE 4 5 1013.3 - 0.6 - Cloudy - - - - -
25/08:30pm 25.0 SSE 5 6 1013.0 - 0.6 - Partly cloudy - - - - -
25/08:00pm 25.2 SSE 4 5 1012.7 - 0.6 - Partly cloudy - - - - -
25/07:30pm 25.9 SE 5 7 1012.4 - 0.6 - Partly cloudy - - - - -
25/07:00pm 25.7 NNE 4 6 1012.2 - 0.6 - Partly cloudy - - - - -
25/06:30pm 28.1 NW 6 9 1011.5 - 0.0 - Partly cloudy - - - - -
25/06:00pm 29.5 ESE 3 5 1010.9 - 0.0 - Cloudy - - - - -
25/05:30pm 30.2 E 4 6 1010.4 - 0.0 - Partly cloudy - - - - -
25/05:00pm 31.4 ENE 3 5 1010.1 - 0.0 - - - - - - -
25/04:30pm 31.4 ENE 6 9 1010.1 - 0.0 - - - - - - -
25/04:00pm 31.9 E 7 11 1010.0 - 0.0 - Partly cloudy - - - - -
25/03:30pm 32.0 NE 6 9 1010.2 - 0.0 - Partly cloudy - - - - -
25/03:00pm 31.8 ENE 5 7 1010.3 - 0.0 - Cloudy - - - - -
25/02:30pm 31.8 ENE 6 10 1010.7 - 0.0 - Partly cloudy - - - - -
25/02:00pm 31.5 NE 7 11 1011.0 - 0.0 - Partly cloudy - - - - -
25/01:30pm 31.2 NE 7 11 1011.5 - 0.0 - - - - - - -
25/01:00pm 30.9 E 8 14 1012.0 - 0.0 - - - - - - -
25/12:30pm 29.7 E 9 14 1012.6 - 0.0 - - - - - - -
25/12:00pm 29.4 ENE 9 15 1013.1 - 0.0 - - - - - - -
25/11:30am 28.7 ENE 8 12 1013.4 - 0.0 - Partly cloudy - - - - -
25/11:00am 28.1 ENE 8 11 1013.8 - 0.0 - Partly cloudy - - - - -
25/10:30am 27.4 ENE 8 14 1014.0 - 0.0 - Partly cloudy - - - - -
25/10:00am 27.4 ENE 7 12 1014.1 - 0.0 - Partly cloudy - - - - -
25/09:30am 26.0 ENE 7 12 1014.1 - 0.0 - Partly cloudy - - - - -
25/09:00am 24.6 ENE 6 11 1014.0 - 25.0 - Cloudy - - - - -
25/08:30am 23.9 ESE 5 7 1013.9 - 25.0 - Cloudy - - - - -
25/08:00am 23.4 SE 5 6 1013.8 - 25.0 - Partly cloudy - - - - -
25/07:30am 23.0 ESE 4 5 1013.3 - 25.0 - Partly cloudy - - - - -
25/07:00am 22.8 E 2 4 1012.9 - 25.0 - Partly cloudy - - - - -
25/06:30am 22.9 SE 3 4 1012.6 - 25.0 - Partly cloudy - - - - -
25/06:00am 22.9 E 5 8 1011.8 - 25.0 - Cloudy - - - - -
25/05:30am 22.8 ENE 4 6 1011.9 - 25.0 - Partly cloudy - - - - -
25/05:18am 22.9 ESE 1 3 1012.4 - 25.0 - Partly cloudy - - - - -
25/05:00am 22.8 E 3 4 1012.2 - 25.0 - Partly cloudy - - - - -
25/04:50am 22.9 SSE 3 4 1012.3 - 25.0 - Partly cloudy - - - - -
25/04:30am 22.9 SE 4 5 1012.2 - 25.0 - Partly cloudy - - - - -
25/04:00am 23.0 NE 3 4 1012.4 - 25.0 - - - - - - -
25/03:30am 23.1 NNE 4 6 1012.5 - 25.0 - - - - - - -
25/03:00am 23.0 NNE 5 6 1012.6 - 25.0 - Partly cloudy - - - - -
25/02:30am 22.9 NE 1 3 1012.8 - 25.0 - Partly cloudy - - - - -
25/02:00am 23.2 E 4 6 1013.2 - 25.0 - Partly cloudy - - - - -
25/01:30am 23.4 CALM 0 0 1013.7 - 25.0 - - - - - - -
25/01:13am 23.4 ENE 2 5 1013.8 - 25.0 - Partly cloudy - - - - -
25/01:00am 23.5 ENE 4 6 1013.7 - 25.0 - Partly cloudy - - - - -
25/12:30am 23.7 E 5 7 1013.7 - 25.0 - Partly cloudy - - - - -
25/12:17am 23.7 E 7 11 1013.4 - 24.8 - Partly cloudy - - - - -
25/12:00am 23.7 E 8 14 1012.9 - 24.8 Rain Cloudy - - - - -
 
Date/Time
EST
Temp

°C
Wind Pressure Rain
since 9am
mm
Weather Cloud Vis
km
Sea
Height
m
Swell
Dir
 
Speed
knots
Gust
knots
hPa Trend Height
m
Period
s
Dir
24/11:30pm 23.4 NE 1 6 1013.8 - 24.2 - Partly cloudy - - - - -
24/11:00pm 23.4 WSW 5 7 1014.1 - 24.0 - - - - - - -
24/10:30pm 23.5 E 8 11 1013.3 - 24.0 - Partly cloudy - - - - -
24/10:17pm 23.2 ENE 7 11 1013.7 - 23.8 - Partly cloudy - - - - -
24/10:00pm 22.9 S 7 11 1014.5 - 23.0 - Partly cloudy - - - - -
24/09:31pm 24.8 SW 6 7 1014.7 - 18.0 - Partly cloudy - - - - -
24/09:30pm 24.8 SW 6 7 1014.7 - 17.8 - Partly cloudy - - - - -
24/09:00pm 25.0 SE 5 7 1014.1 - 14.2 Rain Cloudy - - - - -
24/08:30pm 25.2 ESE 4 7 1013.3 - 9.4 - Partly cloudy - - - - -
24/08:00pm 25.4 S 4 6 1012.7 - 4.2 - Partly cloudy - - - - -
24/07:30pm 25.7 SE 6 7 1011.2 - 3.0 - - - - - - -
24/07:00pm 25.9 E 5 7 1011.2 - 1.6 - - - - - - -
24/06:30pm 27.1 ESE 5 6 1011.0 - 0.0 - Partly cloudy - - - - -
24/06:00pm 28.0 SE 4 5 1011.0 - 0.0 - Mostly cloudy - - - - -
24/05:30pm 29.5 E 5 8 1010.6 - 0.0 - Partly cloudy - - - - -
24/05:00pm 29.8 ENE 5 9 1010.1 - 0.0 - Partly cloudy - - - - -
24/04:30pm 30.3 ENE 6 10 1010.1 - 0.0 - Partly cloudy - - - - -
24/04:00pm 31.1 ENE 7 11 1010.0 - 0.0 - Partly cloudy - - - - -
24/03:30pm 31.9 ENE 7 11 1010.2 - 0.0 - Partly cloudy - - - - -
24/03:00pm 32.1 ENE 7 15 1010.6 - 0.0 - Mostly cloudy - - - - -
24/02:30pm 32.4 ENE 8 13 1010.8 - 0.0 - Partly cloudy - - - - -
24/02:00pm 31.2 E 8 13 1010.9 - 0.0 - Partly cloudy - - - - -
24/01:30pm 31.4 NE 11 16 1011.7 - 0.0 - Partly cloudy - - - - -
24/01:00pm 31.2 NE 10 16 1012.5 - 0.0 - Partly cloudy - - - - -
24/12:30pm 30.4 ENE 9 17 1012.8 - 0.0 - Partly cloudy - - - - -

Other Formats:

Comma delimited format used in spreadsheet applications
http://www.bom.gov.au/fwo/IDQ60701/IDQ60701.94268.axf

JavaScript Object Notation format (JSON) in row-major order
http://www.bom.gov.au/fwo/IDQ60701/IDQ60701.94268.json